Time;durP1;ratioP1;P1;durP2;ratioP2;P2;SDS_P1;SDS_P2;PMS_P1;PMS_P2;Temp;Humidity;BMP_temperature;BMP_pressure;BME280_temperature;BME280_humidity;BME280_pressure;Samples;Min_cycle;Max_cycle;Signal;HPM_P1;HPM_P2
2023/12/10 00:01:55;;;;;;;28.27;6.35;;;11.40;99.90;;;;;;4236902;27;20178;-71
2023/12/10 00:03:57;;;;;;;35.45;6.68;;;11.30;99.90;;;;;;4243673;27;20055;-72
2023/12/10 00:05:59;;;;;;;30.15;6.45;;;11.30;99.90;;;;;;4239185;27;20043;-73
2023/12/10 00:08:14;;;;;;;34.10;6.93;;;11.30;99.90;;;;;;4234114;27;20055;-72
2023/12/10 00:10:16;;;;;;;34.53;7.45;;;11.30;99.90;;;;;;4232340;27;20727;-71
2023/12/10 00:12:20;;;;;;;35.97;7.13;;;11.30;99.90;;;;;;4242607;27;20042;-72
2023/12/10 00:14:23;;;;;;;29.45;6.40;;;11.30;99.90;;;;;;4231220;28;20047;-73
2023/12/10 00:16:26;;;;;;;29.17;6.20;;;11.30;99.90;;;;;;4221892;28;20077;-72
2023/12/10 00:18:28;;;;;;;30.55;6.10;;;11.30;99.90;;;;;;4235280;27;20059;-71
2023/12/10 00:20:30;;;;;;;34.70;7.15;;;11.30;99.90;;;;;;4233216;27;20035;-72
2023/12/10 00:22:32;;;;;;;27.60;6.10;;;11.30;99.90;;;;;;4236339;27;20074;-72
2023/12/10 00:24:34;;;;;;;35.45;6.80;;;11.30;99.90;;;;;;4229154;28;20050;-72
2023/12/10 00:26:37;;;;;;;27.80;7.05;;;11.20;99.90;;;;;;4240096;27;20039;-72
2023/12/10 00:28:40;;;;;;;39.58;7.45;;;11.20;99.90;;;;;;4242829;27;20095;-72
2023/12/10 00:30:42;;;;;;;27.25;7.20;;;11.20;99.90;;;;;;4228174;28;20054;-72
2023/12/10 00:32:45;;;;;;;30.75;7.78;;;11.20;99.90;;;;;;4242796;27;20446;-72
2023/12/10 00:34:47;;;;;;;39.00;7.13;;;11.10;99.90;;;;;;4230841;28;20050;-71
2023/12/10 00:36:50;;;;;;;31.02;6.97;;;11.20;99.90;;;;;;4236998;27;20043;-72
2023/12/10 00:38:55;;;;;;;24.80;5.57;;;11.20;99.90;;;;;;4237182;27;20043;-72
2023/12/10 00:40:57;;;;;;;;;;;11.20;99.90;;;;;;4231867;28;20127;-72
2023/12/10 00:42:59;;;;;;;33.97;6.38;;;11.10;99.90;;;;;;4236388;27;20289;-72
2023/12/10 00:45:03;;;;;;;31.75;7.35;;;11.10;99.90;;;;;;4247976;27;20434;-72
2023/12/10 00:47:05;;;;;;;36.50;8.80;;;11.10;99.90;;;;;;4243407;27;20049;-72
2023/12/10 00:49:09;;;;;;;28.48;9.35;;;11.10;99.90;;;;;;4237963;27;20440;-71
2023/12/10 00:51:18;;;;;;;40.10;9.57;;;11.10;99.90;;;;;;4232292;28;20113;-71
2023/12/10 00:53:21;;;;;;;33.92;8.38;;;11.10;99.90;;;;;;4232865;28;20470;-72
2023/12/10 00:55:23;;;;;;;31.05;7.75;;;11.00;99.90;;;;;;4247180;27;20082;-72
2023/12/10 00:57:25;;;;;;;25.77;7.47;;;11.10;99.90;;;;;;4242020;27;20044;-72
2023/12/10 00:59:27;;;;;;;28.90;6.60;;;11.10;99.90;;;;;;4240487;28;20130;-73
2023/12/10 01:01:31;;;;;;;30.30;6.13;;;11.10;99.90;;;;;;4247425;28;20047;-72
2023/12/10 01:03:33;;;;;;;31.52;7.03;;;11.10;99.90;;;;;;4224922;28;20055;-75
2023/12/10 01:05:35;;;;;;;31.35;6.13;;;11.00;99.90;;;;;;4235159;28;20047;-73
2023/12/10 01:07:37;;;;;;;34.28;6.43;;;11.00;99.90;;;;;;4239423;28;20039;-72
2023/12/10 01:09:40;;;;;;;31.20;5.93;;;11.00;99.90;;;;;;4243926;28;20043;-73
2023/12/10 01:11:42;;;;;;;36.35;7.05;;;11.00;99.90;;;;;;4252292;28;20039;-73
2023/12/10 01:13:44;;;;;;;29.60;7.05;;;11.00;99.90;;;;;;4240722;28;20473;-73
2023/12/10 01:15:48;;;;;;;38.75;7.72;;;11.00;99.90;;;;;;4231944;28;20055;-72
2023/12/10 01:17:52;;;;;;;32.25;6.53;;;11.00;99.90;;;;;;4233996;28;20050;-72
2023/12/10 01:19:54;;;;;;;28.17;6.50;;;11.10;99.90;;;;;;4239593;28;20039;-72
2023/12/10 01:21:56;;;;;;;35.83;7.35;;;11.00;99.90;;;;;;4230654;28;20083;-72
2023/12/10 01:23:59;;;;;;;30.33;6.90;;;11.10;99.90;;;;;;4241644;28;20082;-72
2023/12/10 01:26:01;;;;;;;31.00;5.95;;;11.10;99.90;;;;;;4231782;28;20487;-72
2023/12/10 01:28:04;;;;;;;37.63;6.78;;;11.10;99.90;;;;;;4232475;28;20490;-71
2023/12/10 01:30:07;;;;;;;33.42;6.63;;;11.10;99.90;;;;;;4240678;28;20040;-72
2023/12/10 01:32:10;;;;;;;32.42;6.00;;;11.10;99.90;;;;;;4230726;28;20044;-72
2023/12/10 01:34:14;;;;;;;31.63;6.35;;;11.10;99.90;;;;;;4241147;28;20092;-71
2023/12/10 01:36:23;;;;;;;26.13;6.30;;;11.10;99.90;;;;;;4236982;28;20051;-73
2023/12/10 01:38:25;;;;;;;36.97;7.05;;;11.20;99.90;;;;;;4234053;28;20039;-73
2023/12/10 01:40:28;;;;;;;32.72;7.32;;;11.20;99.90;;;;;;4241735;28;20082;-73
2023/12/10 01:42:30;;;;;;;32.03;6.55;;;11.20;99.90;;;;;;4231302;28;20452;-72
2023/12/10 01:44:32;;;;;;;29.83;6.38;;;11.20;99.90;;;;;;4243452;28;20082;-71
2023/12/10 01:46:34;;;;;;;36.65;6.90;;;11.10;99.90;;;;;;4232428;28;20048;-71
2023/12/10 01:48:38;;;;;;;31.80;6.32;;;11.10;99.90;;;;;;4231833;28;20450;-72
2023/12/10 01:50:42;;;;;;;38.67;8.10;;;11.20;99.90;;;;;;4236199;28;20039;-71
2023/12/10 01:52:47;;;;;;;30.48;7.03;;;11.20;99.90;;;;;;4250613;28;20417;-73
2023/12/10 01:54:50;;;;;;;30.42;6.75;;;11.10;99.90;;;;;;4242014;28;20039;-72
2023/12/10 01:56:54;;;;;;;27.63;5.72;;;11.10;99.90;;;;;;4246479;28;20130;-72
2023/12/10 01:59:08;;;;;;;39.42;7.20;;;11.10;99.90;;;;;;4244445;28;20050;-73
2023/12/10 02:01:10;;;;;;;30.45;6.15;;;11.10;99.90;;;;;;4236922;28;20066;-72
2023/12/10 02:03:12;;;;;;;30.65;6.25;;;11.00;99.90;;;;;;4247440;28;20556;-71
2023/12/10 02:05:14;;;;;;;26.58;5.95;;;11.10;99.90;;;;;;4241898;27;20039;-71
2023/12/10 02:07:18;;;;;;;37.20;7.18;;;11.00;99.90;;;;;;4234703;27;20489;-71
2023/12/10 02:09:20;;;;;;;27.63;6.10;;;11.00;99.90;;;;;;4234144;27;20486;-72
2023/12/10 02:11:22;;;;;;;30.45;5.60;;;11.00;99.90;;;;;;4233026;28;20039;-71
2023/12/10 02:13:25;;;;;;;27.10;6.13;;;11.00;99.90;;;;;;4233128;28;20175;-72
2023/12/10 02:15:28;;;;;;;25.02;5.13;;;10.90;99.90;;;;;;4223935;28;20043;-72
2023/12/10 02:17:30;;;;;;;29.13;5.60;;;10.90;99.90;;;;;;4235694;27;20131;-70
2023/12/10 02:19:33;;;;;;;29.60;6.13;;;10.90;99.90;;;;;;4236917;27;20035;-71
2023/12/10 02:21:37;;;;;;;29.02;6.40;;;10.90;99.90;;;;;;4249315;27;20051;-72
2023/12/10 02:23:49;;;;;;;24.85;5.43;;;10.90;99.90;;;;;;4249812;27;20050;-72
2023/12/10 02:25:53;;;;;;;23.30;5.00;;;10.90;99.90;;;;;;4244363;27;20118;-72
2023/12/10 02:27:55;;;;;;;33.83;6.55;;;10.90;99.90;;;;;;4235561;27;20043;-71
2023/12/10 02:29:57;;;;;;;27.63;6.25;;;10.90;99.90;;;;;;4234017;27;20046;-70
2023/12/10 02:31:59;;;;;;;31.75;6.40;;;10.90;99.90;;;;;;4244170;27;20043;-71
2023/12/10 02:34:01;;;;;;;31.08;6.72;;;10.90;99.90;;;;;;4214840;28;20075;-72
2023/12/10 02:36:04;;;;;;;29.83;6.60;;;11.00;99.90;;;;;;4241024;27;20078;-70
2023/12/10 02:38:07;;;;;;;30.63;6.75;;;11.00;99.90;;;;;;4236974;27;20044;-72
2023/12/10 02:40:10;;;;;;;26.02;5.45;;;10.90;99.90;;;;;;4217049;28;20040;-71
2023/12/10 02:42:16;;;;;;;34.57;8.00;;;10.90;99.90;;;;;;4237886;27;20530;-71
2023/12/10 02:44:18;;;;;;;31.02;5.55;;;10.90;99.90;;;;;;4249788;27;20076;-71
2023/12/10 02:46:20;;;;;;;30.58;7.05;;;10.90;99.90;;;;;;4241127;27;20048;-71
2023/12/10 02:48:24;;;;;;;33.13;6.22;;;10.90;99.90;;;;;;4245148;27;20039;-71
2023/12/10 02:50:27;;;;;;;32.83;6.30;;;10.90;99.90;;;;;;4247868;27;20138;-71
2023/12/10 02:52:29;;;;;;;35.33;6.57;;;10.80;99.90;;;;;;4238519;27;20071;-70
2023/12/10 02:54:31;;;;;;;30.15;6.78;;;10.80;99.90;;;;;;4250159;27;20057;-71
2023/12/10 02:56:33;;;;;;;34.28;6.40;;;10.90;99.90;;;;;;4242615;27;20473;-70
2023/12/10 02:58:37;;;;;;;26.58;5.57;;;10.80;99.90;;;;;;4214701;28;20044;-72
2023/12/10 03:00:39;;;;;;;30.35;6.93;;;10.80;99.90;;;;;;4233424;27;20039;-70
2023/12/10 03:02:41;;;;;;;33.70;5.50;;;10.80;99.90;;;;;;4237677;27;20134;-70
2023/12/10 03:04:43;;;;;;;33.13;6.72;;;10.80;99.90;;;;;;4250593;27;20043;-70
2023/12/10 03:06:46;;;;;;;33.90;6.95;;;10.90;99.90;;;;;;4246060;27;20088;-70
2023/12/10 03:08:48;;;;;;;34.65;7.45;;;10.90;99.90;;;;;;4220513;28;20078;-70
2023/12/10 03:10:50;;;;;;;34.55;6.28;;;10.90;99.90;;;;;;4232999;28;20047;-72
2023/12/10 03:12:52;;;;;;;31.48;6.15;;;10.90;99.90;;;;;;4235463;27;20100;-70
2023/12/10 03:14:56;;;;;;;30.77;5.57;;;10.90;99.90;;;;;;4249558;27;20057;-69
2023/12/10 03:16:58;;;;;;;31.85;5.70;;;10.90;99.90;;;;;;4244179;27;20040;-70
2023/12/10 03:19:00;;;;;;;30.30;6.22;;;10.80;99.90;;;;;;4240687;27;20039;-70
2023/12/10 03:21:03;;;;;;;30.80;6.25;;;10.90;99.90;;;;;;4248798;27;20409;-70
2023/12/10 03:23:05;;;;;;;26.88;5.13;;;10.90;99.90;;;;;;4228896;28;20047;-70
2023/12/10 03:25:07;;;;;;;34.38;6.85;;;10.90;99.90;;;;;;4231954;28;20183;-69
2023/12/10 03:27:10;;;;;;;32.97;6.15;;;11.00;99.90;;;;;;4235143;27;20055;-70
2023/12/10 03:29:12;;;;;;;29.88;6.40;;;11.00;99.90;;;;;;4240494;27;20040;-70
2023/12/10 03:31:16;;;;;;;23.17;5.22;;;11.00;99.90;;;;;;4231639;28;20070;-71
2023/12/10 03:33:18;;;;;;;31.52;6.55;;;11.00;99.90;;;;;;4242844;27;20088;-70
2023/12/10 03:35:20;;;;;;;26.92;5.93;;;11.00;99.90;;;;;;4232354;27;20391;-71
2023/12/10 03:37:22;;;;;;;34.90;6.88;;;11.00;99.90;;;;;;4233559;27;20040;-70
2023/12/10 03:39:24;;;;;;;22.80;5.65;;;11.00;99.90;;;;;;4241697;27;20052;-69
2023/12/10 03:41:26;;;;;;;32.28;6.88;;;11.00;99.90;;;;;;4231489;28;20044;-70
2023/12/10 03:43:29;;;;;;;27.02;5.43;;;11.00;99.90;;;;;;4241369;27;20121;-71
2023/12/10 03:45:31;;;;;;;24.48;6.15;;;11.00;99.90;;;;;;4233509;27;20470;-70
2023/12/10 03:47:35;;;;;;;28.17;5.68;;;11.00;99.90;;;;;;4232434;27;20114;-70
2023/12/10 03:49:37;;;;;;;28.52;5.90;;;11.00;99.90;;;;;;4236719;27;20077;-70
2023/12/10 03:51:39;;;;;;;29.83;5.68;;;11.00;99.90;;;;;;4248393;27;20047;-70
2023/12/10 03:53:42;;;;;;;30.00;5.00;;;11.10;99.90;;;;;;4238732;27;20422;-71
2023/12/10 03:55:44;;;;;;;24.63;5.15;;;11.10;99.90;;;;;;4244903;27;20118;-71
2023/12/10 03:57:48;;;;;;;32.53;6.05;;;11.10;99.90;;;;;;4246890;27;20119;-70
2023/12/10 03:59:51;;;;;;;32.58;6.43;;;11.10;99.90;;;;;;4232601;27;20044;-70
2023/12/10 04:01:53;;;;;;;26.90;6.38;;;11.10;99.90;;;;;;4231687;28;20545;-70
2023/12/10 04:03:57;;;;;;;21.30;4.75;;;11.10;99.90;;;;;;4238916;27;20108;-70
2023/12/10 04:06:01;;;;;;;37.00;7.03;;;11.10;99.90;;;;;;4248306;27;20096;-70
2023/12/10 04:08:03;;;;;;;31.27;5.55;;;11.10;99.90;;;;;;4246566;27;20059;-70
2023/12/10 04:10:07;;;;;;;24.27;6.10;;;11.10;99.90;;;;;;4214737;28;20113;-71
2023/12/10 04:12:09;;;;;;;25.88;6.32;;;11.10;99.90;;;;;;4231137;28;20071;-70
2023/12/10 04:14:11;;;;;;;27.73;5.30;;;11.10;99.90;;;;;;4222763;28;20046;-72
2023/12/10 04:16:23;;;;;;;33.83;5.80;;;11.10;99.90;;;;;;4240536;27;20075;-71
2023/12/10 04:18:25;;;;;;;30.73;5.15;;;11.10;99.90;;;;;;4237559;27;20035;-71
2023/12/10 04:20:29;;;;;;;23.88;5.78;;;11.20;99.90;;;;;;4240336;27;20035;-76
2023/12/10 04:22:31;;;;;;;32.08;5.80;;;11.20;99.90;;;;;;4233558;28;20097;-74
2023/12/10 04:24:33;;;;;;;21.20;5.18;;;11.20;99.90;;;;;;4248350;27;20050;-70
2023/12/10 04:26:35;;;;;;;20.27;5.22;;;11.30;99.90;;;;;;4236007;27;20054;-69
2023/12/10 04:28:38;;;;;;;32.95;6.45;;;11.30;99.90;;;;;;4231994;28;20047;-70
2023/12/10 04:30:40;;;;;;;21.17;5.10;;;11.20;99.90;;;;;;4242515;27;20047;-70
2023/12/10 04:32:42;;;;;;;36.25;6.40;;;11.20;99.90;;;;;;4231019;28;20130;-70
2023/12/10 04:34:45;;;;;;;18.83;4.82;;;11.20;99.90;;;;;;4237289;27;20130;-70
2023/12/10 04:36:48;;;;;;;28.17;5.57;;;11.30;99.90;;;;;;4237697;27;20108;-70
2023/12/10 04:38:50;;;;;;;27.77;5.65;;;11.20;99.90;;;;;;4231836;28;20051;-70
2023/12/10 04:40:52;;;;;;;30.17;6.00;;;11.20;99.90;;;;;;4242183;27;20051;-70
2023/12/10 04:42:54;;;;;;;30.08;5.18;;;11.20;99.90;;;;;;4230558;28;20053;-69
2023/12/10 04:44:57;;;;;;;27.17;6.05;;;11.10;99.90;;;;;;4235547;27;20041;-69
2023/12/10 04:46:59;;;;;;;29.08;5.88;;;11.10;99.90;;;;;;4237762;27;20047;-71
2023/12/10 04:49:01;;;;;;;31.52;5.82;;;11.20;99.90;;;;;;4230647;28;20054;-70
2023/12/10 04:51:05;;;;;;;25.58;6.18;;;11.20;99.90;;;;;;4234894;27;20043;-72
2023/12/10 04:53:09;;;;;;;32.75;5.60;;;11.20;99.90;;;;;;4247860;27;20404;-69
2023/12/10 04:55:11;;;;;;;25.08;6.43;;;11.20;99.90;;;;;;4242968;27;20047;-68
2023/12/10 04:57:14;;;;;;;27.52;5.93;;;11.10;99.90;;;;;;4238954;27;20122;-68
2023/12/10 04:59:16;;;;;;;26.33;5.82;;;11.10;99.90;;;;;;4247182;27;20146;-69
2023/12/10 05:01:18;;;;;;;38.13;5.72;;;11.10;99.90;;;;;;4234296;28;20072;-69
2023/12/10 05:03:20;;;;;;;31.15;5.57;;;11.00;99.90;;;;;;4247331;28;20051;-69
2023/12/10 05:05:23;;;;;;;29.05;5.72;;;11.00;99.90;;;;;;4242784;28;20040;-68
2023/12/10 05:07:25;;;;;;;28.70;6.40;;;11.00;99.90;;;;;;4239824;28;20145;-69
2023/12/10 05:09:28;;;;;;;35.53;6.50;;;11.00;99.90;;;;;;4212186;28;20423;-69
2023/12/10 05:11:30;;;;;;;21.17;5.03;;;11.10;99.90;;;;;;4244183;28;20051;-69
2023/12/10 05:13:33;;;;;;;38.13;6.75;;;11.10;99.90;;;;;;4231868;28;20131;-70
2023/12/10 05:15:35;;;;;;;35.88;5.70;;;11.00;99.90;;;;;;4231765;28;20075;-68
2023/12/10 05:17:37;;;;;;;32.75;5.20;;;11.00;99.90;;;;;;4242145;28;20063;-72
2023/12/10 05:19:39;;;;;;;28.90;6.22;;;11.00;99.90;;;;;;4231933;28;20448;-70
2023/12/10 05:21:41;;;;;;;32.95;6.25;;;11.10;99.90;;;;;;4240468;28;20137;-70
2023/12/10 05:23:43;;;;;;;32.28;5.07;;;11.00;99.90;;;;;;4214489;28;20059;-70
2023/12/10 05:25:47;;;;;;;26.08;5.50;;;11.00;99.90;;;;;;4231578;28;20134;-68
2023/12/10 05:27:49;;;;;;;32.92;6.38;;;11.00;99.90;;;;;;4241652;28;20044;-69
2023/12/10 05:29:51;;;;;;;33.72;6.28;;;11.00;99.90;;;;;;4229803;28;20118;-70
2023/12/10 05:31:54;;;;;;;24.48;5.00;;;11.10;99.90;;;;;;4220767;28;20063;-70
2023/12/10 05:33:56;;;;;;;23.13;6.05;;;11.10;99.90;;;;;;4234200;28;20135;-70
2023/12/10 05:35:58;;;;;;;29.88;5.95;;;11.10;99.90;;;;;;4231829;28;20039;-69
2023/12/10 05:38:00;;;;;;;26.95;6.40;;;11.10;99.90;;;;;;4241427;28;20050;-68
2023/12/10 05:40:03;;;;;;;20.80;5.28;;;11.10;99.90;;;;;;4230850;28;20146;-69
2023/12/10 05:42:07;;;;;;;22.27;5.45;;;11.20;99.90;;;;;;4240467;27;20084;-69
2023/12/10 05:44:09;;;;;;;24.40;5.38;;;11.20;99.90;;;;;;4237950;27;20482;-70
2023/12/10 05:46:11;;;;;;;28.73;6.25;;;11.10;99.90;;;;;;4234356;27;20043;-70
2023/12/10 05:48:13;;;;;;;35.65;6.75;;;11.10;99.90;;;;;;4244605;27;20063;-70
2023/12/10 05:50:16;;;;;;;23.80;4.70;;;11.10;99.90;;;;;;4233485;28;20046;-70
2023/12/10 05:52:18;;;;;;;29.23;5.80;;;11.00;99.90;;;;;;4239401;27;20043;-70
2023/12/10 05:54:20;;;;;;;32.97;5.72;;;11.00;99.90;;;;;;4239749;27;20039;-70
2023/12/10 05:56:22;;;;;;;30.98;5.63;;;11.10;99.90;;;;;;4233621;28;20044;-70
2023/12/10 05:58:26;;;;;;;30.50;5.80;;;11.10;99.90;;;;;;4241802;27;20044;-70
2023/12/10 06:00:28;;;;;;;27.17;5.97;;;11.10;99.90;;;;;;4237020;28;20079;-72
2023/12/10 06:02:31;;;;;;;32.70;6.05;;;11.00;99.90;;;;;;4246684;27;20047;-70
2023/12/10 06:04:33;;;;;;;28.92;6.22;;;11.00;99.90;;;;;;4242529;27;20043;-70
2023/12/10 06:06:35;;;;;;;28.90;5.85;;;11.00;99.90;;;;;;4249883;27;20059;-71
2023/12/10 06:08:38;;;;;;;29.17;5.97;;;11.00;99.90;;;;;;4246344;27;20043;-70
2023/12/10 06:10:40;;;;;;;29.70;6.30;;;11.00;99.90;;;;;;4233330;28;20474;-69
2023/12/10 06:12:42;;;;;;;31.63;6.47;;;11.00;99.90;;;;;;4236227;27;20528;-70
2023/12/10 06:14:47;;;;;;;23.23;5.32;;;11.00;99.90;;;;;;4241531;27;20040;-70
2023/12/10 06:16:49;;;;;;;30.67;6.43;;;11.00;99.90;;;;;;4233045;28;20472;-70
2023/12/10 06:18:51;;;;;;;30.17;5.95;;;11.00;99.90;;;;;;4244619;27;20043;-70
2023/12/10 06:20:54;;;;;;;30.13;5.75;;;11.00;99.90;;;;;;4233042;27;20112;-70
2023/12/10 06:22:56;;;;;;;30.58;5.60;;;11.00;99.90;;;;;;4235134;27;20051;-69
2023/12/10 06:24:58;;;;;;;28.05;5.28;;;11.10;99.90;;;;;;4242407;27;20258;-70
2023/12/10 06:27:01;;;;;;;36.28;6.68;;;11.10;99.90;;;;;;4232416;28;20047;-71
2023/12/10 06:29:03;;;;;;;29.17;6.25;;;11.10;99.90;;;;;;4225022;28;20549;-69
2023/12/10 06:31:07;;;;;;;28.50;4.78;;;11.10;99.90;;;;;;4234509;27;20082;-69
2023/12/10 06:33:09;;;;;;;31.52;5.72;;;11.10;99.90;;;;;;4234102;27;20047;-67
2023/12/10 06:35:11;;;;;;;24.90;4.95;;;11.10;99.90;;;;;;4243472;27;20338;-66
2023/12/10 06:37:13;;;;;;;30.17;5.63;;;11.20;99.90;;;;;;4214188;28;20040;-68
2023/12/10 06:39:16;;;;;;;24.77;5.03;;;11.20;99.90;;;;;;4241682;27;20133;-68
2023/12/10 06:41:18;;;;;;;24.00;4.75;;;11.20;99.90;;;;;;4235410;27;20039;-70
2023/12/10 06:43:21;;;;;;;33.30;6.35;;;11.20;99.90;;;;;;4215269;28;20470;-70
2023/12/10 06:45:23;;;;;;;30.10;5.45;;;11.20;99.90;;;;;;4243671;27;20486;-69
2023/12/10 06:47:27;;;;;;;30.90;5.93;;;11.30;99.90;;;;;;4232113;28;20043;-68
2023/12/10 06:49:29;;;;;;;27.20;6.38;;;11.30;99.90;;;;;;4240753;27;20059;-68
2023/12/10 06:51:31;;;;;;;28.55;6.65;;;11.40;99.90;;;;;;4236011;27;20074;-68
2023/12/10 06:53:34;;;;;;;32.67;6.45;;;11.30;99.90;;;;;;4233336;27;20043;-68
2023/12/10 06:55:36;;;;;;;28.15;6.50;;;11.30;99.90;;;;;;4243620;27;20054;-67
2023/12/10 06:57:38;;;;;;;20.80;5.18;;;11.30;99.90;;;;;;4231983;28;20047;-69
2023/12/10 06:59:41;;;;;;;29.55;6.38;;;11.20;99.90;;;;;;4238909;27;20085;-69
2023/12/10 07:01:43;;;;;;;30.92;5.80;;;11.20;99.90;;;;;;4237547;27;20054;-68
2023/12/10 07:03:46;;;;;;;35.33;6.80;;;11.20;99.90;;;;;;4233019;27;20123;-68
2023/12/10 07:05:49;;;;;;;39.83;7.10;;;11.20;99.90;;;;;;4237243;27;20077;-66
2023/12/10 07:07:51;;;;;;;35.15;6.60;;;11.10;99.90;;;;;;4249280;27;20043;-67
2023/12/10 07:09:53;;;;;;;25.42;6.57;;;11.20;99.90;;;;;;4242806;27;20044;-67
2023/12/10 07:11:55;;;;;;;30.08;6.55;;;11.10;99.90;;;;;;4242335;27;20046;-68
2023/12/10 07:13:57;;;;;;;32.58;6.63;;;11.10;99.90;;;;;;4248236;27;20047;-67
2023/12/10 07:15:59;;;;;;;33.40;7.32;;;11.20;99.90;;;;;;4236573;27;20051;-68
2023/12/10 07:18:01;;;;;;;34.83;7.22;;;11.20;99.90;;;;;;4248931;27;20153;-68
2023/12/10 07:20:09;;;;;;;31.83;6.78;;;11.00;99.90;;;;;;4243660;27;20043;-68
2023/12/10 07:22:11;;;;;;;26.25;5.95;;;11.00;99.90;;;;;;4241375;27;20418;-67
2023/12/10 07:24:13;;;;;;;27.92;5.55;;;11.00;99.90;;;;;;4248417;27;20043;-72
2023/12/10 07:26:21;;;;;;;29.45;6.45;;;11.10;99.90;;;;;;4235273;27;20482;-66
2023/12/10 07:28:23;;;;;;;26.70;5.43;;;11.10;99.90;;;;;;4231722;28;20043;-68
2023/12/10 07:30:25;;;;;;;31.08;5.45;;;11.10;99.90;;;;;;4236297;27;20231;-67
2023/12/10 07:32:27;;;;;;;36.67;7.70;;;11.30;99.90;;;;;;4239276;27;20044;-68
2023/12/10 07:34:30;;;;;;;26.95;5.82;;;11.20;99.90;;;;;;4231735;28;20071;-68
2023/12/10 07:36:34;;;;;;;39.38;7.63;;;11.10;99.90;;;;;;4244330;27;20157;-67
2023/12/10 07:38:40;;;;;;;34.33;6.68;;;11.10;99.90;;;;;;4231686;28;20052;-68
2023/12/10 07:40:42;;;;;;;34.80;6.45;;;11.10;99.90;;;;;;4217220;28;20127;-67
2023/12/10 07:42:44;;;;;;;34.13;6.43;;;11.10;99.90;;;;;;4240256;27;20039;-68
2023/12/10 07:44:46;;;;;;;35.38;7.47;;;11.00;99.90;;;;;;4248705;27;20058;-67
2023/12/10 07:46:48;;;;;;;31.95;7.10;;;11.10;99.90;;;;;;4235812;27;20040;-68
2023/12/10 07:48:50;;;;;;;24.83;6.28;;;11.10;99.90;;;;;;4247852;27;20035;-67
2023/12/10 07:50:52;;;;;;;24.88;6.10;;;11.00;99.90;;;;;;4245531;27;20516;-68
2023/12/10 07:52:56;;;;;;;38.25;6.93;;;11.00;99.90;;;;;;4238893;27;20118;-68
2023/12/10 07:54:58;;;;;;;32.80;6.97;;;11.00;99.90;;;;;;4248127;27;20102;-69
2023/12/10 07:57:00;;;;;;;33.45;6.35;;;11.10;99.90;;;;;;4238614;27;20044;-71
2023/12/10 07:59:02;;;;;;;32.90;6.45;;;11.00;99.90;;;;;;4230449;28;20083;-74
2023/12/10 08:01:05;;;;;;;36.28;7.00;;;10.90;99.90;;;;;;4248658;27;20070;-68
2023/12/10 08:03:07;;;;;;;32.08;6.85;;;11.00;99.90;;;;;;4238709;27;20115;-66
2023/12/10 08:05:09;;;;;;;34.85;6.15;;;11.00;99.90;;;;;;4250328;27;20054;-72
2023/12/10 08:07:11;;;;;;;29.73;5.60;;;11.00;99.90;;;;;;4245117;27;20467;-68
2023/12/10 08:09:15;;;;;;;30.65;6.55;;;11.10;99.90;;;;;;4234043;27;20039;-68
2023/12/10 08:11:17;;;;;;;38.97;6.75;;;11.10;99.90;;;;;;4232475;27;20101;-68
2023/12/10 08:13:19;;;;;;;31.85;7.03;;;11.20;99.90;;;;;;4243062;27;20460;-67
2023/12/10 08:15:21;;;;;;;38.65;7.45;;;11.20;99.90;;;;;;4231278;28;20043;-67
2023/12/10 08:17:24;;;;;;;34.25;7.07;;;11.10;99.90;;;;;;4239285;27;20478;-67
2023/12/10 08:19:26;;;;;;;31.83;7.32;;;11.10;99.90;;;;;;4235144;27;20047;-68
2023/12/10 08:21:28;;;;;;;26.70;6.38;;;11.10;99.90;;;;;;4232003;28;20054;-67
2023/12/10 08:23:30;;;;;;;32.63;6.88;;;11.00;99.90;;;;;;4241948;27;20036;-68
2023/12/10 08:25:34;;;;;;;40.00;7.32;;;11.00;99.90;;;;;;4230939;28;20063;-67
2023/12/10 08:27:36;;;;;;;32.53;7.03;;;11.10;99.90;;;;;;4238007;27;20035;-67
2023/12/10 08:29:38;;;;;;;30.67;6.13;;;11.10;99.90;;;;;;4236026;27;20051;-66
2023/12/10 08:31:41;;;;;;;35.13;7.35;;;11.10;99.90;;;;;;4231699;28;20043;-66
2023/12/10 08:33:45;;;;;;;32.70;5.97;;;11.20;99.90;;;;;;4242271;27;20121;-66
2023/12/10 08:35:48;;;;;;;39.70;7.45;;;11.20;99.90;;;;;;4230594;28;20116;-68
2023/12/10 08:37:50;;;;;;;34.67;6.35;;;11.20;99.90;;;;;;4235210;27;20046;-68
2023/12/10 08:39:52;;;;;;;29.95;5.85;;;11.20;99.90;;;;;;4241331;27;20051;-68
2023/12/10 08:41:55;;;;;;;27.27;6.50;;;11.20;99.90;;;;;;4228413;28;20509;-68
2023/12/10 08:43:57;;;;;;;33.38;6.75;;;11.20;99.90;;;;;;4236177;27;20054;-69
2023/12/10 08:46:00;;;;;;;32.03;6.75;;;11.20;99.90;;;;;;4249164;27;20103;-69
2023/12/10 08:48:02;;;;;;;42.45;7.93;;;11.30;99.90;;;;;;4243889;27;20143;-68
2023/12/10 08:50:05;;;;;;;40.00;7.53;;;11.30;99.90;;;;;;4240012;27;20097;-68
2023/12/10 08:52:07;;;;;;;33.60;6.55;;;11.30;99.90;;;;;;4246916;27;20039;-68
2023/12/10 08:54:09;;;;;;;29.70;6.53;;;11.30;99.90;;;;;;4234696;27;20047;-69
2023/12/10 08:56:12;;;;;;;34.17;7.38;;;11.20;99.90;;;;;;4247642;27;20458;-69
2023/12/10 08:58:16;;;;;;;35.08;7.20;;;11.20;99.90;;;;;;4243500;28;20043;-68
2023/12/10 09:00:18;;;;;;;34.35;7.18;;;11.30;99.90;;;;;;4238986;28;20047;-68
2023/12/10 09:02:20;;;;;;;33.53;6.13;;;11.30;99.90;;;;;;4247441;28;20051;-67
2023/12/10 09:04:22;;;;;;;30.92;6.05;;;11.30;99.90;;;;;;4242801;28;20130;-68
2023/12/10 09:06:24;;;;;;;41.40;7.22;;;11.40;99.90;;;;;;4247406;28;20043;-68
2023/12/10 09:08:27;;;;;;;26.55;6.93;;;11.50;99.90;;;;;;4244361;28;20555;-68
2023/12/10 09:10:29;;;;;;;34.13;6.78;;;11.60;99.90;;;;;;4237282;28;20049;-68
2023/12/10 09:12:31;;;;;;;35.55;6.00;;;11.40;99.90;;;;;;4247229;28;20112;-68
2023/12/10 09:14:36;;;;;;;34.42;6.63;;;11.40;99.90;;;;;;4237665;28;20530;-68
2023/12/10 09:16:38;;;;;;;29.48;6.80;;;11.50;99.90;;;;;;4249169;27;20057;-68
2023/12/10 09:18:40;;;;;;;38.40;6.80;;;11.40;99.90;;;;;;4246683;27;20040;-67
2023/12/10 09:20:42;;;;;;;29.55;6.07;;;11.50;99.90;;;;;;4244413;27;20043;-68
2023/12/10 09:22:44;;;;;;;29.35;6.07;;;11.40;99.90;;;;;;4233253;28;20047;-68
2023/12/10 09:24:46;;;;;;;32.35;6.65;;;11.40;99.90;;;;;;4242966;27;20039;-70
2023/12/10 09:26:49;;;;;;;34.10;7.22;;;11.30;99.90;;;;;;4236417;27;20047;-68
2023/12/10 09:28:51;;;;;;;30.50;7.05;;;11.40;99.90;;;;;;4234902;27;20039;-68
2023/12/10 09:30:54;;;;;;;38.17;6.78;;;11.30;99.90;;;;;;4245164;27;20054;-67
2023/12/10 09:32:57;;;;;;;29.02;6.97;;;11.40;99.90;;;;;;4233803;28;20482;-67
2023/12/10 09:35:00;;;;;;;32.50;6.93;;;11.40;99.90;;;;;;4242080;27;20054;-68
2023/12/10 09:37:03;;;;;;;29.52;6.93;;;11.40;99.90;;;;;;4237246;27;20092;-68
2023/12/10 09:39:05;;;;;;;34.42;6.60;;;11.40;99.90;;;;;;4216451;28;20063;-68
2023/12/10 09:41:07;;;;;;;37.17;7.57;;;11.40;99.90;;;;;;4245022;27;20031;-68
2023/12/10 09:43:09;;;;;;;35.33;7.47;;;11.40;99.90;;;;;;4234343;28;20068;-68
2023/12/10 09:45:12;;;;;;;30.70;7.50;;;11.50;99.90;;;;;;4241059;27;20043;-70
2023/12/10 09:47:17;;;;;;;29.83;6.43;;;11.50;99.90;;;;;;4220744;28;20044;-70
2023/12/10 09:49:22;;;;;;;32.65;6.30;;;11.60;99.90;;;;;;4234628;27;20130;-70
2023/12/10 09:51:24;;;;;;;34.83;7.28;;;11.70;99.90;;;;;;4244365;27;20044;-69
2023/12/10 09:53:28;;;;;;;37.63;7.32;;;11.50;99.90;;;;;;4233568;28;20044;-69
2023/12/10 09:55:30;;;;;;;34.95;7.47;;;11.60;99.90;;;;;;4239843;27;20039;-69
2023/12/10 09:57:32;;;;;;;34.78;6.68;;;11.40;99.90;;;;;;4238653;27;20142;-70
2023/12/10 09:59:35;;;;;;;35.15;7.90;;;11.50;99.90;;;;;;4234145;27;20040;-70
2023/12/10 10:01:37;;;;;;;38.55;7.05;;;11.60;99.90;;;;;;4244811;27;20051;-70
2023/12/10 10:03:41;;;;;;;33.35;7.30;;;11.60;99.90;;;;;;4232946;28;20039;-70
2023/12/10 10:05:43;;;;;;;32.05;6.45;;;11.70;99.90;;;;;;4236833;27;20071;-67
2023/12/10 10:07:46;;;;;;;34.50;7.00;;;11.70;99.90;;;;;;4243582;27;20134;-69
2023/12/10 10:09:48;;;;;;;31.73;7.32;;;11.70;99.90;;;;;;4249925;27;20059;-69
2023/12/10 10:11:50;;;;;;;42.63;8.20;;;11.80;99.90;;;;;;4237817;27;20128;-68
2023/12/10 10:13:53;;;;;;;31.48;6.38;;;11.80;99.90;;;;;;4250268;27;20047;-68
2023/12/10 10:15:56;;;;;;;38.03;7.70;;;11.80;99.90;;;;;;4245093;27;20040;-70
2023/12/10 10:17:58;;;;;;;39.33;8.02;;;11.80;99.90;;;;;;4243278;27;20112;-71
2023/12/10 10:20:06;;;;;;;29.15;6.55;;;11.90;99.90;;;;;;4251946;27;20043;-66
2023/12/10 10:22:08;;;;;;;38.35;6.95;;;11.90;99.90;;;;;;4238850;27;20130;-66
2023/12/10 10:24:11;;;;;;;25.50;5.88;;;11.80;99.90;;;;;;4250652;27;20043;-68
2023/12/10 10:26:15;;;;;;;;;;;11.80;99.90;;;;;;4245298;27;20071;-67
2023/12/10 10:28:17;;;;;;;34.92;7.38;;;11.90;99.90;;;;;;4241867;27;20366;-66
2023/12/10 10:30:19;;;;;;;26.33;7.00;;;11.80;99.90;;;;;;4250059;27;20137;-66
2023/12/10 10:32:22;;;;;;;40.08;7.70;;;12.00;99.90;;;;;;4236777;27;20043;-67